2AK4 weather

Bootleggers Cove Airport
Homer, Alaska, United States

Public forecast

Using degrees Fahrenheit for public forecast. Weather courtesy of forecast.io.

METAR (pilot weather report)

Closest report is Seldovia Airport, 6.1 nm (11.3 km) WSW. Retrieved 2019/07/18 01:53 UTC (18 minutes ago):

PASO 180153Z AUTO 01007KT 10SM CLR 19/12 A2966 RMK AO2 SLP043 T01940117 TSNO

TAF (pilot weather forecast)

Forecast is more than 12 hours old.

Closest forecast is Homer Airport, 10.6 nm (19.6 km) N. Retrieved 2019/07/17 00:42 UTC (1 day ago):

TAF PAHO 172339Z 1800/1824 25010KT P6SM SCT080 BKN200 FM180600 VRB04KT P6SM SCT080 BKN200 FM182000 24010KT P6SM FEW100